Time;durP1;ratioP1;P1;durP2;ratioP2;P2;SDS_P1;SDS_P2;PMS_P1;PMS_P2;Temp;Humidity;BMP_temperature;BMP_pressure;BME280_temperature;BME280_humidity;BME280_pressure;Samples;Min_cycle;Max_cycle;Signal;HPM_P1;HPM_P2
2023/05/20 00:00:19;;;;;;;2.65;1.20;;;20.90;56.40;;;;;;5073538;28;20049;-61
2023/05/20 00:02:44;;;;;;;2.00;0.90;;;20.90;56.30;;;;;;5072654;28;20040;-61
2023/05/20 00:05:10;;;;;;;2.80;1.23;;;20.90;56.40;;;;;;5073039;28;20059;-61
2023/05/20 00:07:36;;;;;;;4.13;1.25;;;20.90;56.30;;;;;;5073625;28;20052;-61
2023/05/20 00:10:01;;;;;;;1.88;0.95;;;20.90;56.40;;;;;;5071661;28;20040;-61
2023/05/20 00:12:27;;;;;;;2.28;1.20;;;20.80;56.30;;;;;;5073081;28;20040;-60
2023/05/20 00:14:52;;;;;;;3.20;1.20;;;20.80;56.30;;;;;;5073539;28;20408;-61
2023/05/20 00:17:18;;;;;;;3.33;1.48;;;20.80;56.30;;;;;;5071158;28;20040;-60
2023/05/20 00:19:43;;;;;;;3.78;1.20;;;20.80;56.30;;;;;;5073494;28;20049;-61
2023/05/20 00:22:09;;;;;;;2.83;0.98;;;20.80;56.30;;;;;;5073147;28;20441;-61
2023/05/20 00:24:35;;;;;;;2.90;1.20;;;20.80;56.30;;;;;;5072860;28;20488;-60
2023/05/20 00:27:01;;;;;;;3.25;1.10;;;20.80;56.30;;;;;;5073050;28;20052;-61
2023/05/20 00:29:27;;;;;;;2.72;1.38;;;20.80;56.30;;;;;;5073129;28;20056;-61
2023/05/20 00:31:53;;;;;;;2.70;1.20;;;20.80;56.30;;;;;;5077651;28;20040;-61
2023/05/20 00:34:19;;;;;;;3.35;1.10;;;20.80;56.30;;;;;;5072833;28;20033;-60
2023/05/20 00:36:45;;;;;;;3.42;1.23;;;20.80;56.40;;;;;;5072715;28;20055;-61
2023/05/20 00:39:11;;;;;;;3.70;1.42;;;20.80;56.40;;;;;;5072071;28;20052;-60
2023/05/20 00:41:37;;;;;;;3.35;1.30;;;20.80;56.30;;;;;;5073221;28;20043;-61
2023/05/20 00:44:02;;;;;;;2.10;0.90;;;20.80;56.40;;;;;;5073314;28;20045;-61
2023/05/20 00:46:28;;;;;;;2.45;1.15;;;20.80;56.40;;;;;;5070805;28;20044;-60
2023/05/20 00:48:54;;;;;;;4.47;1.50;;;20.70;56.30;;;;;;5071983;28;20060;-61
2023/05/20 00:51:19;;;;;;;2.90;1.17;;;20.70;56.30;;;;;;5076132;28;20403;-61
2023/05/20 00:53:45;;;;;;;3.83;1.08;;;20.70;56.30;;;;;;5072248;28;20044;-60
2023/05/20 00:56:11;;;;;;;3.92;1.23;;;20.80;56.40;;;;;;5071284;28;20032;-61
2023/05/20 00:58:37;;;;;;;2.60;1.20;;;20.70;56.30;;;;;;5071948;28;20155;-61
2023/05/20 01:01:03;;;;;;;4.07;1.27;;;20.70;56.30;;;;;;5054839;28;20464;-61
2023/05/20 01:03:29;;;;;;;3.15;1.27;;;20.70;56.30;;;;;;5070108;28;20051;-60
2023/05/20 01:05:54;;;;;;;2.88;1.10;;;20.70;56.40;;;;;;5070622;28;20033;-60
2023/05/20 01:08:21;;;;;;;3.03;1.33;;;20.70;56.30;;;;;;5070744;28;20083;-61
2023/05/20 01:10:50;;;;;;;4.10;1.20;;;20.70;56.40;;;;;;5072431;28;20044;-60
2023/05/20 01:13:19;;;;;;;2.28;1.15;;;20.70;56.30;;;;;;5069906;28;20465;-60
2023/05/20 01:15:45;;;;;;;2.47;0.90;;;20.70;56.30;;;;;;5055134;28;20068;-60
2023/05/20 01:18:11;;;;;;;4.45;1.27;;;20.70;57.00;;;;;;5072159;28;20084;-60
2023/05/20 01:20:36;;;;;;;1.58;0.95;;;20.70;56.30;;;;;;5037123;28;20043;-60
2023/05/20 01:23:03;;;;;;;1.80;0.90;;;20.70;56.40;;;;;;5070921;28;20128;-60
2023/05/20 01:25:28;;;;;;;3.17;1.38;;;20.70;56.30;;;;;;5091349;28;20131;-61
2023/05/20 01:27:56;;;;;;;2.53;1.20;;;20.70;56.30;;;;;;5081422;28;20576;-60
2023/05/20 01:30:22;;;;;;;3.10;1.10;;;20.70;56.40;;;;;;5060769;28;20070;-60
2023/05/20 01:33:00;;;;;;;2.50;1.23;;;20.60;56.30;;;;;;5082868;28;20090;-60
2023/05/20 01:35:26;;;;;;;3.92;1.33;;;20.70;56.30;;;;;;5070172;28;20048;-61
2023/05/20 01:37:51;;;;;;;2.63;1.15;;;20.60;56.30;;;;;;5050800;28;20045;-60
2023/05/20 01:40:17;;;;;;;3.33;1.15;;;20.60;56.20;;;;;;5050763;28;20045;-60
2023/05/20 01:42:42;;;;;;;1.90;1.00;;;20.60;56.20;;;;;;5057899;28;20028;-60
2023/05/20 01:45:08;;;;;;;2.42;1.10;;;20.60;56.20;;;;;;5075347;28;20507;-60
2023/05/20 01:47:34;;;;;;;3.25;1.38;;;20.60;56.20;;;;;;5085679;28;20093;-60
2023/05/20 01:50:00;;;;;;;3.30;1.33;;;20.60;56.20;;;;;;5070711;28;20040;-60
2023/05/20 01:52:25;;;;;;;1.70;1.00;;;20.60;56.20;;;;;;5071419;28;20048;-60
2023/05/20 01:54:51;;;;;;;1.95;1.20;;;20.60;56.30;;;;;;5071465;28;20048;-61
2023/05/20 01:57:20;;;;;;;2.47;1.10;;;20.60;56.20;;;;;;5071410;28;20036;-61
2023/05/20 01:59:46;;;;;;;3.15;1.10;;;20.60;56.20;;;;;;5072278;28;20055;-60
2023/05/20 02:02:12;;;;;;;3.33;1.33;;;20.60;56.20;;;;;;5070993;28;20040;-60
2023/05/20 02:04:38;;;;;;;1.95;1.08;;;20.60;56.20;;;;;;5071679;28;20518;-60
2023/05/20 02:07:03;;;;;;;2.20;0.90;;;20.60;56.20;;;;;;5071292;28;20044;-60
2023/05/20 02:09:29;;;;;;;2.65;1.20;;;20.60;56.20;;;;;;5069823;28;20051;-60
2023/05/20 02:11:54;;;;;;;2.47;0.98;;;20.50;56.20;;;;;;5071344;28;20063;-60
2023/05/20 02:14:20;;;;;;;4.53;1.45;;;20.60;56.20;;;;;;5071274;28;20526;-60
2023/05/20 02:16:46;;;;;;;2.22;1.00;;;20.50;56.20;;;;;;5069598;28;20094;-60
2023/05/20 02:19:12;;;;;;;2.00;1.05;;;20.50;56.10;;;;;;5070351;28;20052;-60
2023/05/20 02:21:40;;;;;;;2.67;1.25;;;20.50;56.20;;;;;;5071895;28;20870;-60
2023/05/20 02:24:06;;;;;;;3.80;1.20;;;20.50;56.20;;;;;;5070685;28;20048;-60
2023/05/20 02:26:33;;;;;;;3.28;1.42;;;20.50;56.20;;;;;;5071720;28;20059;-61
2023/05/20 02:28:58;;;;;;;2.45;1.10;;;20.50;56.20;;;;;;5071618;28;20048;-61
2023/05/20 02:31:24;;;;;;;2.97;1.10;;;20.50;56.20;;;;;;5070925;28;20036;-60
2023/05/20 02:33:50;;;;;;;2.33;1.00;;;20.50;56.20;;;;;;5070349;28;20162;-60
2023/05/20 02:36:16;;;;;;;2.17;0.80;;;20.50;56.20;;;;;;5070175;28;20047;-60
2023/05/20 02:38:42;;;;;;;3.15;1.35;;;20.50;56.20;;;;;;5070931;28;20049;-60
2023/05/20 02:41:07;;;;;;;3.08;1.13;;;20.50;56.20;;;;;;5071252;28;20041;-61
2023/05/20 02:43:33;;;;;;;2.72;1.13;;;20.50;56.20;;;;;;5073495;28;20468;-60
2023/05/20 02:45:59;;;;;;;2.40;1.20;;;20.50;56.20;;;;;;5074537;28;20105;-61
2023/05/20 02:48:25;;;;;;;3.65;1.50;;;20.50;56.20;;;;;;5074809;28;20037;-61
2023/05/20 02:50:51;;;;;;;2.38;1.00;;;20.50;56.20;;;;;;5074540;28;20441;-61
2023/05/20 02:53:17;;;;;;;3.22;1.08;;;20.50;56.20;;;;;;5081285;28;20402;-61
2023/05/20 02:55:46;;;;;;;2.05;1.20;;;20.50;56.20;;;;;;5095336;28;20048;-61
2023/05/20 02:58:12;;;;;;;2.90;1.13;;;20.50;56.20;;;;;;5086639;28;20087;-61
2023/05/20 03:00:39;;;;;;;2.10;1.15;;;20.50;56.20;;;;;;5075283;28;20040;-61
2023/05/20 03:03:12;;;;;;;2.07;0.97;;;20.40;56.10;;;;;;5075164;28;20048;-61
2023/05/20 03:05:38;;;;;;;3.67;1.10;;;20.40;56.10;;;;;;5074343;28;20036;-60
2023/05/20 03:08:08;;;;;;;2.45;1.02;;;20.40;56.10;;;;;;5074586;28;20551;-61
2023/05/20 03:10:37;;;;;;;1.30;0.80;;;20.40;56.10;;;;;;5075167;28;20040;-61
2023/05/20 03:13:07;;;;;;;3.03;1.02;;;20.40;56.10;;;;;;5073655;28;20040;-60
2023/05/20 03:15:39;;;;;;;2.50;1.00;;;20.40;56.20;;;;;;5075071;28;20080;-61
2023/05/20 03:18:05;;;;;;;2.40;0.90;;;20.40;56.20;;;;;;5079001;28;20041;-60
2023/05/20 03:20:37;;;;;;;2.20;1.10;;;20.40;56.20;;;;;;5073926;28;20036;-61
2023/05/20 03:23:03;;;;;;;2.75;1.10;;;20.40;56.20;;;;;;5073381;28;20476;-61
2023/05/20 03:25:29;;;;;;;1.27;0.80;;;20.40;56.20;;;;;;5074708;28;20094;-61
2023/05/20 03:27:55;;;;;;;2.10;1.00;;;20.40;56.20;;;;;;5072347;28;20461;-61
2023/05/20 03:30:21;;;;;;;2.35;0.90;;;20.40;56.20;;;;;;5074393;28;20131;-61
2023/05/20 03:32:46;;;;;;;2.63;1.00;;;20.40;56.90;;;;;;5073264;28;20503;-61
2023/05/20 03:35:12;;;;;;;3.15;1.10;;;20.40;56.20;;;;;;5073389;28;20056;-60
2023/05/20 03:37:38;;;;;;;2.65;1.02;;;20.40;56.20;;;;;;5072656;28;20093;-61
2023/05/20 03:40:05;;;;;;;1.98;1.02;;;20.40;56.20;;;;;;5073767;28;20483;-61
2023/05/20 03:42:31;;;;;;;2.10;1.10;;;20.40;56.20;;;;;;5079694;28;20043;-61
2023/05/20 03:44:59;;;;;;;1.90;0.90;;;20.40;56.20;;;;;;5073175;28;20409;-60
2023/05/20 03:47:24;;;;;;;1.75;0.85;;;20.40;56.20;;;;;;5073079;28;20790;-61
2023/05/20 03:49:50;;;;;;;1.90;1.00;;;20.30;56.10;;;;;;5072913;28;20554;-61
2023/05/20 03:52:16;;;;;;;2.28;1.17;;;20.30;56.10;;;;;;5073686;28;20503;-61
2023/05/20 03:54:41;;;;;;;3.67;1.10;;;20.30;56.10;;;;;;5071598;28;20076;-61
2023/05/20 03:57:09;;;;;;;3.92;1.30;;;20.30;56.10;;;;;;5073755;28;20041;-62
2023/05/20 03:59:35;;;;;;;1.88;1.00;;;20.30;56.10;;;;;;5071474;28;20048;-61
2023/05/20 04:02:01;;;;;;;2.67;0.90;;;20.30;56.20;;;;;;5065314;28;20056;-60
2023/05/20 04:04:27;;;;;;;2.00;1.00;;;20.30;56.20;;;;;;5068536;28;20072;-60
2023/05/20 04:06:53;;;;;;;2.88;1.00;;;20.30;56.20;;;;;;5072536;28;20122;-61
2023/05/20 04:09:19;;;;;;;3.15;1.15;;;20.30;56.20;;;;;;5072153;28;20090;-61
2023/05/20 04:11:44;;;;;;;2.65;0.90;;;20.30;56.20;;;;;;5073609;28;20056;-61
2023/05/20 04:14:10;;;;;;;1.55;0.90;;;20.30;56.20;;;;;;5073432;28;20540;-61
2023/05/20 04:16:36;;;;;;;2.25;1.05;;;20.30;56.20;;;;;;5073009;28;20431;-61
2023/05/20 04:19:02;;;;;;;2.55;0.95;;;20.30;56.20;;;;;;5073337;28;20091;-60
2023/05/20 04:21:28;;;;;;;3.42;1.00;;;20.30;56.20;;;;;;5071741;28;20143;-61
2023/05/20 04:23:53;;;;;;;1.60;1.00;;;20.30;56.20;;;;;;5073238;28;20131;-60
2023/05/20 04:26:19;;;;;;;1.67;1.02;;;20.30;56.20;;;;;;5073130;28;20473;-61
2023/05/20 04:28:47;;;;;;;2.28;1.02;;;20.30;56.20;;;;;;5073289;28;20066;-61
2023/05/20 04:31:13;;;;;;;2.90;0.90;;;20.30;56.20;;;;;;5070991;28;20044;-61
2023/05/20 04:33:38;;;;;;;3.15;1.20;;;20.30;56.20;;;;;;5072975;28;20045;-60
2023/05/20 04:36:05;;;;;;;2.00;1.00;;;20.30;56.20;;;;;;5073437;28;20135;-60
2023/05/20 04:38:31;;;;;;;3.08;1.00;;;20.30;56.20;;;;;;5071917;28;20522;-61
2023/05/20 04:41:00;;;;;;;2.08;0.98;;;20.30;56.20;;;;;;5073693;28;20064;-60
2023/05/20 04:43:28;;;;;;;1.33;0.80;;;20.30;56.20;;;;;;5071912;28;20036;-61
2023/05/20 04:45:54;;;;;;;3.25;0.95;;;20.30;56.20;;;;;;5072474;28;20051;-61
2023/05/20 04:48:21;;;;;;;2.30;1.13;;;20.30;56.20;;;;;;5071541;28;20044;-61
2023/05/20 04:50:50;;;;;;;1.80;0.93;;;20.30;56.80;;;;;;5071068;28;20499;-60
2023/05/20 04:53:17;;;;;;;2.85;0.90;;;20.40;56.20;;;;;;5072558;28;20048;-60
2023/05/20 04:55:43;;;;;;;2.13;0.80;;;20.40;56.20;;;;;;5071792;28;20476;-61
2023/05/20 04:58:14;;;;;;;1.70;0.80;;;20.40;56.10;;;;;;5071935;28;20045;-61
2023/05/20 05:00:41;;;;;;;2.53;1.02;;;20.40;56.10;;;;;;5072522;28;20036;-60
2023/05/20 05:03:07;;;;;;;1.35;0.80;;;20.40;56.10;;;;;;5072558;28;20492;-60
2023/05/20 05:05:34;;;;;;;1.45;0.88;;;20.40;56.00;;;;;;5070103;28;20044;-61
2023/05/20 05:08:00;;;;;;;1.90;1.10;;;20.50;56.10;;;;;;5071384;28;20044;-60
2023/05/20 05:10:26;;;;;;;2.03;1.30;;;20.40;56.10;;;;;;5072152;28;20166;-60
2023/05/20 05:12:51;;;;;;;2.45;1.00;;;20.50;56.10;;;;;;5070549;28;20060;-60
2023/05/20 05:15:17;;;;;;;2.78;0.90;;;20.50;56.00;;;;;;5072289;28;20117;-60
2023/05/20 05:17:42;;;;;;;1.98;0.88;;;20.50;56.00;;;;;;5071130;28;20041;-60
2023/05/20 05:20:08;;;;;;;1.13;0.70;;;20.50;56.00;;;;;;5071202;28;20041;-60
2023/05/20 05:22:35;;;;;;;1.85;0.85;;;20.50;55.90;;;;;;5072530;28;20040;-60
2023/05/20 05:25:02;;;;;;;2.10;0.90;;;20.50;55.90;;;;;;5072282;28;20062;-60
2023/05/20 05:27:28;;;;;;;2.33;0.90;;;20.50;55.90;;;;;;5072417;28;20059;-61
2023/05/20 05:29:53;;;;;;;1.67;0.80;;;20.50;55.90;;;;;;5090981;28;20044;-60
2023/05/20 05:32:19;;;;;;;2.00;0.80;;;20.50;55.90;;;;;;5091193;28;20134;-60
2023/05/20 05:34:44;;;;;;;1.60;1.08;;;20.60;56.00;;;;;;5079754;28;20080;-61
2023/05/20 05:37:10;;;;;;;2.13;0.98;;;20.60;55.90;;;;;;5071854;28;20059;-61
2023/05/20 05:39:36;;;;;;;2.03;1.00;;;20.60;56.00;;;;;;5072014;28;20040;-61
2023/05/20 05:42:02;;;;;;;2.10;0.82;;;20.60;55.90;;;;;;5071973;28;20059;-61
2023/05/20 05:44:28;;;;;;;2.33;0.80;;;20.60;55.90;;;;;;5070558;28;20036;-61
2023/05/20 05:46:53;;;;;;;1.38;0.70;;;20.60;55.90;;;;;;5070436;28;20089;-60
2023/05/20 05:49:19;;;;;;;1.67;0.70;;;20.60;55.90;;;;;;5071544;28;20115;-61
2023/05/20 05:51:45;;;;;;;1.63;0.80;;;20.60;55.90;;;;;;5072067;28;20055;-60
2023/05/20 05:54:10;;;;;;;1.83;0.82;;;20.60;55.90;;;;;;5071943;28;20040;-60
2023/05/20 05:56:36;;;;;;;1.33;0.70;;;20.60;55.90;;;;;;5092180;28;20087;-60
2023/05/20 05:59:01;;;;;;;1.33;0.80;;;20.60;55.80;;;;;;5087404;28;20048;-60
2023/05/20 06:01:27;;;;;;;1.27;0.80;;;20.60;55.90;;;;;;5050906;28;20041;-60
2023/05/20 06:03:52;;;;;;;2.00;0.75;;;20.60;55.90;;;;;;5054721;28;20047;-60
2023/05/20 06:06:18;;;;;;;1.70;0.80;;;20.60;55.80;;;;;;5070326;28;20044;-60
2023/05/20 06:08:43;;;;;;;1.67;0.80;;;20.60;55.90;;;;;;5071256;28;20044;-60
2023/05/20 06:11:09;;;;;;;1.80;0.80;;;20.60;55.90;;;;;;5071485;28;20041;-60
2023/05/20 06:13:35;;;;;;;1.15;0.60;;;20.70;55.90;;;;;;5071532;28;20049;-60
2023/05/20 06:16:00;;;;;;;1.42;0.70;;;20.70;55.90;;;;;;5071247;28;20518;-60
2023/05/20 06:18:26;;;;;;;1.10;0.70;;;20.60;55.80;;;;;;5073460;28;20052;-60
2023/05/20 06:20:58;;;;;;;2.53;0.80;;;20.70;55.80;;;;;;5074672;28;20111;-60
2023/05/20 06:23:24;;;;;;;1.70;0.80;;;20.70;55.80;;;;;;5073406;28;20048;-60
2023/05/20 06:25:50;;;;;;;2.05;0.70;;;20.70;55.80;;;;;;5075277;28;20123;-60
2023/05/20 06:28:16;;;;;;;2.20;0.90;;;20.70;55.80;;;;;;5074243;28;20128;-60
2023/05/20 06:30:41;;;;;;;1.65;0.70;;;20.70;55.80;;;;;;5073537;28;20068;-60
2023/05/20 06:33:07;;;;;;;1.48;0.70;;;20.70;55.80;;;;;;5081585;28;20119;-60
2023/05/20 06:35:33;;;;;;;3.28;1.02;;;20.70;55.80;;;;;;5080513;28;20045;-60
2023/05/20 06:38:00;;;;;;;2.78;1.17;;;20.70;55.80;;;;;;5074541;28;20048;-59
2023/05/20 06:40:26;;;;;;;1.80;0.73;;;20.70;55.80;;;;;;5086140;28;20097;-60
2023/05/20 06:42:52;;;;;;;1.98;0.70;;;20.70;55.90;;;;;;5095840;28;20082;-60
2023/05/20 06:45:17;;;;;;;3.47;0.80;;;20.70;56.00;;;;;;5084674;28;20072;-60
2023/05/20 06:47:43;;;;;;;3.28;0.77;;;20.70;55.90;;;;;;5095525;28;20040;-61
2023/05/20 06:50:09;;;;;;;3.25;1.10;;;20.70;55.90;;;;;;5083430;28;20040;-60
2023/05/20 06:52:35;;;;;;;2.20;0.90;;;20.70;56.00;;;;;;5075370;28;20154;-60
2023/05/20 06:55:01;;;;;;;2.10;0.82;;;20.80;56.00;;;;;;5075191;28;20488;-60
2023/05/20 06:57:26;;;;;;;2.47;0.70;;;20.80;56.10;;;;;;5074146;28;20484;-60
2023/05/20 06:59:52;;;;;;;2.58;0.80;;;20.80;56.10;;;;;;5073795;28;20036;-60
2023/05/20 07:02:17;;;;;;;3.20;0.77;;;20.80;56.10;;;;;;5073777;28;20048;-60
2023/05/20 07:04:43;;;;;;;4.53;0.98;;;20.80;56.10;;;;;;5073033;28;20476;-60
2023/05/20 07:07:09;;;;;;;3.13;0.90;;;20.80;56.10;;;;;;5074399;28;20037;-65
2023/05/20 07:09:34;;;;;;;4.63;1.00;;;20.80;56.10;;;;;;5074473;28;20570;-60
2023/05/20 07:12:00;;;;;;;3.00;1.00;;;20.80;56.40;;;;;;5072617;28;20049;-61
2023/05/20 07:14:26;;;;;;;3.22;1.30;;;20.90;56.70;;;;;;5074133;28;20488;-60
2023/05/20 07:16:51;;;;;;;1.92;0.88;;;20.90;56.80;;;;;;5073679;28;20040;-61
2023/05/20 07:19:17;;;;;;;2.05;0.80;;;20.90;56.90;;;;;;5073368;28;20041;-63
2023/05/20 07:21:42;;;;;;;2.10;0.90;;;20.90;57.00;;;;;;5074655;28;20068;-63
2023/05/20 07:24:08;;;;;;;2.17;0.93;;;20.90;56.90;;;;;;5074073;28;20048;-60
2023/05/20 07:26:35;;;;;;;3.55;1.20;;;20.90;56.80;;;;;;5073472;28;20060;-61
2023/05/20 07:29:02;;;;;;;2.67;0.75;;;20.90;56.90;;;;;;5074393;28;20102;-61
2023/05/20 07:31:29;;;;;;;4.93;1.00;;;20.90;57.00;;;;;;5086241;28;20139;-60
2023/05/20 07:33:55;;;;;;;2.17;0.85;;;20.90;57.10;;;;;;5093933;28;20048;-61
2023/05/20 07:36:21;;;;;;;4.38;1.00;;;20.90;57.20;;;;;;5075961;28;20097;-61
2023/05/20 07:38:46;;;;;;;2.08;0.77;;;21.00;57.20;;;;;;5074473;28;20055;-62
2023/05/20 07:41:12;;;;;;;3.92;0.90;;;21.00;57.20;;;;;;5072934;28;20076;-62
2023/05/20 07:43:37;;;;;;;3.85;0.90;;;21.00;57.20;;;;;;5074510;28;20048;-61
2023/05/20 07:46:03;;;;;;;2.88;0.80;;;21.00;57.20;;;;;;5073897;28;20110;-61
2023/05/20 07:48:28;;;;;;;2.53;0.93;;;21.00;57.20;;;;;;5073193;28;20052;-62
2023/05/20 07:50:57;;;;;;;2.50;0.90;;;21.00;57.20;;;;;;5072696;28;20048;-62
2023/05/20 07:53:23;;;;;;;3.20;0.90;;;21.10;57.20;;;;;;5072931;28;20045;-62
2023/05/20 07:55:49;;;;;;;4.93;1.00;;;21.10;57.20;;;;;;5072585;28;20036;-61
2023/05/20 07:58:15;;;;;;;2.45;0.70;;;21.10;57.20;;;;;;5073798;28;20049;-62
2023/05/20 08:00:40;;;;;;;3.88;0.90;;;21.10;57.20;;;;;;5073275;28;20044;-61
2023/05/20 08:03:06;;;;;;;3.10;0.80;;;21.10;57.10;;;;;;5072985;28;20067;-60
2023/05/20 08:05:32;;;;;;;2.13;0.85;;;21.20;57.20;;;;;;5073322;28;20121;-60
2023/05/20 08:07:58;;;;;;;2.28;0.90;;;21.20;57.20;;;;;;5072348;28;20091;-61
2023/05/20 08:10:23;;;;;;;4.43;0.98;;;21.20;57.20;;;;;;5071818;28;20387;-62
2023/05/20 08:12:49;;;;;;;2.05;1.23;;;21.20;57.20;;;;;;5073422;28;20072;-61
2023/05/20 08:15:14;;;;;;;4.32;1.27;;;21.20;57.10;;;;;;5072385;28;20036;-61
2023/05/20 08:17:40;;;;;;;3.38;0.88;;;21.20;57.10;;;;;;5072041;28;20041;-61
2023/05/20 08:20:07;;;;;;;2.42;0.80;;;21.20;57.10;;;;;;5072124;28;20037;-61
2023/05/20 08:22:34;;;;;;;3.28;0.90;;;21.30;57.00;;;;;;5072899;28;20056;-61
2023/05/20 08:25:00;;;;;;;2.85;0.70;;;21.20;57.00;;;;;;5073205;28;20874;-61
2023/05/20 08:27:25;;;;;;;2.05;0.70;;;21.30;57.00;;;;;;5073021;28;20131;-62
2023/05/20 08:29:51;;;;;;;3.25;0.80;;;21.30;57.00;;;;;;5071742;28;20052;-62
2023/05/20 08:32:17;;;;;;;2.90;0.70;;;21.30;57.00;;;;;;5073270;28;20391;-62
2023/05/20 08:34:42;;;;;;;4.07;0.93;;;21.30;57.10;;;;;;5071961;28;20442;-62
2023/05/20 08:37:08;;;;;;;3.70;1.10;;;21.30;57.00;;;;;;5071679;28;20131;-62
2023/05/20 08:39:33;;;;;;;2.92;0.90;;;21.30;57.00;;;;;;5072045;28;20101;-62
2023/05/20 08:42:00;;;;;;;1.30;0.80;;;21.30;57.00;;;;;;5073037;28;20052;-62
2023/05/20 08:44:25;;;;;;;2.17;0.98;;;21.30;57.10;;;;;;5070960;28;20048;-63
2023/05/20 08:46:51;;;;;;;6.57;0.90;;;21.40;57.10;;;;;;5071868;28;20048;-63
2023/05/20 08:49:16;;;;;;;3.72;1.10;;;21.40;57.00;;;;;;5054904;28;20049;-62
2023/05/20 08:51:42;;;;;;;4.07;0.80;;;21.40;57.00;;;;;;5054156;28;20032;-62
2023/05/20 08:54:07;;;;;;;3.00;0.95;;;21.40;57.00;;;;;;5072535;28;20136;-63
2023/05/20 08:56:33;;;;;;;3.38;1.00;;;21.40;57.00;;;;;;5034682;28;20041;-62
2023/05/20 08:58:59;;;;;;;1.88;0.93;;;21.40;56.90;;;;;;5051341;28;20102;-62
2023/05/20 09:01:24;;;;;;;4.30;0.85;;;21.40;56.90;;;;;;5066640;28;20396;-62
2023/05/20 09:03:50;;;;;;;2.47;1.05;;;21.40;56.90;;;;;;5071587;28;20048;-61
2023/05/20 09:06:18;;;;;;;2.15;1.00;;;21.40;56.90;;;;;;5072082;28;20048;-61
2023/05/20 09:08:45;;;;;;;3.35;1.20;;;21.40;56.90;;;;;;5072571;28;20052;-61
2023/05/20 09:11:11;;;;;;;1.45;0.70;;;21.40;56.80;;;;;;5070705;28;20044;-61
2023/05/20 09:13:36;;;;;;;2.35;0.90;;;21.40;56.70;;;;;;5071557;28;20036;-60
2023/05/20 09:16:02;;;;;;;2.13;0.95;;;21.50;56.90;;;;;;5072639;28;20633;-61
2023/05/20 09:18:28;;;;;;;0.93;0.68;;;21.50;56.80;;;;;;5071273;28;20480;-61
2023/05/20 09:20:53;;;;;;;3.95;1.10;;;21.50;56.80;;;;;;5071208;28;20076;-61
2023/05/20 09:23:22;;;;;;;2.60;1.00;;;21.50;56.70;;;;;;5083080;28;20048;-61
2023/05/20 09:25:53;;;;;;;;;;;21.50;56.80;;;;;;5084570;28;20080;-63
2023/05/20 09:28:23;;;;;;;3.55;1.05;;;21.50;56.80;;;;;;5071232;28;20027;-62
2023/05/20 09:30:50;;;;;;;3.90;0.88;;;21.50;56.60;;;;;;5072754;28;20575;-61
2023/05/20 09:33:16;;;;;;;2.75;0.90;;;21.50;56.50;;;;;;5071714;28;20051;-61
2023/05/20 09:35:42;;;;;;;2.15;0.88;;;21.50;56.40;;;;;;5072675;28;20119;-62
2023/05/20 09:38:07;;;;;;;3.75;1.40;;;21.50;56.20;;;;;;5071067;28;20136;-61
2023/05/20 09:40:36;;;;;;;10.60;1.30;;;21.50;56.20;;;;;;5054063;28;20036;-64
2023/05/20 09:43:10;;;;;;;11.52;1.30;;;21.50;56.20;;;;;;5071431;28;20079;-61
2023/05/20 09:45:37;;;;;;;8.45;1.30;;;21.50;56.30;;;;;;5072617;28;20525;-61
2023/05/20 09:48:03;;;;;;;6.85;1.52;;;21.50;56.60;;;;;;5071848;28;20063;-61
2023/05/20 09:50:28;;;;;;;4.72;1.30;;;21.50;56.50;;;;;;5054688;28;20044;-61
2023/05/20 09:52:54;;;;;;;5.80;1.50;;;21.50;56.60;;;;;;5070197;28;20499;-61
2023/05/20 09:55:23;;;;;;;7.32;1.65;;;21.50;56.50;;;;;;5072217;28;20090;-61
2023/05/20 09:57:48;;;;;;;11.23;1.40;;;21.50;56.60;;;;;;5071385;28;20045;-61
2023/05/20 10:00:16;;;;;;;5.28;1.35;;;21.50;56.50;;;;;;5071547;28;20098;-61
2023/05/20 10:02:43;;;;;;;4.57;1.33;;;21.50;56.50;;;;;;5072650;28;20060;-61
2023/05/20 10:05:14;;;;;;;4.13;1.10;;;21.50;56.50;;;;;;5071121;28;20083;-61
2023/05/20 10:08:21;;;;;;;8.63;1.25;;;21.50;56.30;;;;;;5054483;28;20173;-60
2023/05/20 10:11:14;;;;;;;15.50;1.40;;;21.50;55.90;;;;;;5072559;28;20052;-61
2023/05/20 10:14:03;;;;;;;7.05;1.30;;;21.50;56.10;;;;;;5055847;28;20434;-61
2023/05/20 10:16:42;;;;;;;10.43;1.48;;;21.50;56.10;;;;;;5076360;28;20043;-64
2023/05/20 10:19:11;;;;;;;12.57;1.52;;;21.60;56.00;;;;;;5084374;28;20128;-61
2023/05/20 10:21:37;;;;;;;7.95;1.42;;;21.50;56.10;;;;;;5053003;28;20048;-61
2023/05/20 10:24:07;;;;;;;5.07;1.33;;;21.60;56.30;;;;;;5070257;28;20041;-61
2023/05/20 10:26:40;;;;;;;5.35;1.60;;;21.60;56.30;;;;;;5071481;28;20500;-61
2023/05/20 10:29:15;;;;;;;8.43;2.10;;;21.60;56.50;;;;;;5071112;28;20063;-61
2023/05/20 10:31:48;;;;;;;6.88;2.05;;;21.60;56.50;;;;;;5071780;28;20084;-61
2023/05/20 10:34:20;;;;;;;9.40;2.08;;;21.60;56.40;;;;;;5071583;28;20101;-61
2023/05/20 10:37:06;;;;;;;4.70;1.20;;;21.60;56.40;;;;;;5070316;28;20040;-61
2023/05/20 10:39:35;;;;;;;8.07;1.50;;;21.60;56.30;;;;;;5071240;28;20052;-61
2023/05/20 10:42:07;;;;;;;7.70;1.75;;;21.70;56.40;;;;;;5070390;28;20050;-61
2023/05/20 10:44:43;;;;;;;5.93;1.52;;;21.60;56.30;;;;;;5071547;28;20074;-61
2023/05/20 10:47:08;;;;;;;4.63;1.20;;;21.70;56.30;;;;;;5071795;28;20076;-61
2023/05/20 10:49:37;;;;;;;6.93;1.58;;;21.70;56.20;;;;;;5070586;28;20079;-61
2023/05/20 10:52:02;;;;;;;;;;;21.70;56.00;;;;;;5070943;28;20551;-60
2023/05/20 10:54:28;;;;;;;5.00;1.23;;;21.70;55.90;;;;;;5071744;28;20010;-60
2023/05/20 10:56:54;;;;;;;9.48;1.90;;;21.70;55.90;;;;;;5071297;28;20439;-60
2023/05/20 10:59:23;;;;;;;4.45;1.30;;;21.70;55.80;;;;;;5070385;28;20040;-60
2023/05/20 11:01:48;;;;;;;4.70;1.30;;;21.70;55.80;;;;;;5070642;28;20040;-61
2023/05/20 11:04:15;;;;;;;6.80;1.35;;;21.70;55.80;;;;;;5069585;28;20673;-60
2023/05/20 11:06:49;;;;;;;6.57;1.55;;;21.70;55.80;;;;;;5074213;28;20036;-61
2023/05/20 11:09:15;;;;;;;3.28;1.20;;;21.70;55.80;;;;;;5073710;28;20045;-60
2023/05/20 11:11:40;;;;;;;5.53;1.80;;;21.70;55.90;;;;;;5073330;28;20098;-60
2023/05/20 11:14:06;;;;;;;4.20;1.15;;;21.70;55.90;;;;;;5074189;28;20048;-60
2023/05/20 11:16:31;;;;;;;8.55;1.73;;;21.70;55.80;;;;;;5073990;28;20052;-60
2023/05/20 11:18:57;;;;;;;3.60;1.40;;;21.70;55.70;;;;;;5074424;28;20539;-60
2023/05/20 11:21:22;;;;;;;5.93;1.50;;;21.70;55.70;;;;;;5073432;28;20523;-60
2023/05/20 11:23:50;;;;;;;5.45;1.20;;;21.70;55.60;;;;;;5073641;28;20037;-60
2023/05/20 11:26:16;;;;;;;5.10;1.40;;;21.70;55.40;;;;;;5072655;28;20401;-60
2023/05/20 11:28:41;;;;;;;3.75;1.30;;;21.70;55.30;;;;;;5075262;28;20538;-60
2023/05/20 11:31:07;;;;;;;3.10;1.45;;;21.60;55.20;;;;;;5075009;28;20411;-60
2023/05/20 11:33:32;;;;;;;5.00;1.50;;;21.60;55.20;;;;;;5074233;28;20044;-60
2023/05/20 11:35:58;;;;;;;3.97;1.80;;;21.60;55.10;;;;;;5073716;28;20411;-60
2023/05/20 11:38:24;;;;;;;5.22;1.55;;;21.60;55.10;;;;;;5072447;28;20051;-60
2023/05/20 11:40:53;;;;;;;4.22;1.40;;;21.60;54.90;;;;;;5074676;28;20047;-60
2023/05/20 11:43:19;;;;;;;6.60;1.65;;;21.60;54.60;;;;;;5074437;28;20492;-60
2023/05/20 11:45:55;;;;;;;3.33;1.15;;;21.60;54.40;;;;;;5074049;28;20059;-60
2023/05/20 11:48:20;;;;;;;4.43;1.45;;;21.60;54.30;;;;;;5074669;28;20045;-60
2023/05/20 11:50:47;;;;;;;4.75;1.20;;;21.60;54.30;;;;;;5074602;28;20044;-60
2023/05/20 11:53:16;;;;;;;5.13;1.40;;;21.60;54.30;;;;;;5073168;28;20044;-59
2023/05/20 11:55:51;;;;;;;3.42;1.40;;;21.60;54.30;;;;;;5074883;28;20067;-59
2023/05/20 11:58:29;;;;;;;4.00;1.17;;;21.60;54.30;;;;;;5074175;28;20200;-59
2023/05/20 12:00:55;;;;;;;4.82;1.20;;;21.60;54.20;;;;;;5073878;28;20041;-60
2023/05/20 12:03:21;;;;;;;5.25;1.30;;;21.60;54.30;;;;;;5074312;28;20120;-59
2023/05/20 12:05:47;;;;;;;4.90;1.42;;;21.60;54.30;;;;;;5074498;28;20198;-60
2023/05/20 12:08:13;;;;;;;3.80;1.00;;;21.60;54.30;;;;;;5073153;28;20056;-60
2023/05/20 12:10:38;;;;;;;4.20;1.58;;;21.60;54.30;;;;;;5074268;28;20481;-60
2023/05/20 12:13:07;;;;;;;2.40;1.23;;;21.60;54.20;;;;;;5074467;28;20120;-60
2023/05/20 12:15:34;;;;;;;6.53;1.40;;;21.60;54.20;;;;;;5072855;28;20055;-60
2023/05/20 12:18:00;;;;;;;3.60;1.05;;;21.60;54.20;;;;;;5074111;28;20041;-60
2023/05/20 12:20:26;;;;;;;4.38;1.23;;;21.60;54.20;;;;;;5073187;28;20040;-60
2023/05/20 12:22:51;;;;;;;3.88;1.20;;;21.70;54.20;;;;;;5073342;28;20261;-60
2023/05/20 12:25:18;;;;;;;4.78;1.40;;;21.70;54.20;;;;;;5073691;28;20094;-60
2023/05/20 12:27:47;;;;;;;4.05;1.20;;;21.70;54.20;;;;;;5072987;28;20067;-60
2023/05/20 12:30:15;;;;;;;3.63;1.15;;;21.70;54.10;;;;;;5073771;28;20086;-60
2023/05/20 12:32:42;;;;;;;2.92;1.45;;;21.80;54.10;;;;;;5073807;28;20044;-60
2023/05/20 12:35:08;;;;;;;3.97;1.40;;;21.70;54.00;;;;;;5071870;28;20492;-60
2023/05/20 12:37:33;;;;;;;2.35;1.17;;;21.70;54.00;;;;;;5073561;28;20050;-60
2023/05/20 12:39:59;;;;;;;3.85;1.27;;;21.70;53.90;;;;;;5073375;28;20036;-60
2023/05/20 12:42:25;;;;;;;5.50;1.42;;;21.70;54.00;;;;;;5072740;28;20079;-59
2023/05/20 12:44:50;;;;;;;3.80;1.40;;;21.70;54.00;;;;;;5073697;28;20098;-59